createdAt,value
2022-11-10T00:02:45.125Z,9.50
2022-11-10T00:05:31.304Z,9.50
2022-11-10T00:08:16.924Z,9.50
2022-11-10T00:11:07.233Z,9.50
2022-11-10T00:14:11.648Z,9.50
2022-11-10T00:17:06.798Z,9.50
2022-11-10T00:19:52.543Z,9.50
2022-11-10T00:22:38.887Z,9.50
2022-11-10T00:25:24.833Z,9.50
2022-11-10T00:28:10.528Z,9.50
2022-11-10T00:30:56.169Z,9.50
2022-11-10T00:33:42.644Z,9.50
2022-11-10T00:36:28.146Z,9.50
2022-11-10T00:39:13.748Z,9.50
2022-11-10T00:41:59.467Z,9.50
2022-11-10T00:44:44.830Z,9.50
2022-11-10T00:47:30.303Z,9.40
2022-11-10T00:50:15.790Z,9.50
2022-11-10T00:53:01.464Z,9.40
2022-11-10T00:55:47.237Z,9.50
2022-11-10T00:58:32.860Z,9.60
2022-11-10T01:01:19.627Z,9.50
2022-11-10T01:04:05.546Z,9.50
2022-11-10T01:06:52.997Z,9.50
2022-11-10T01:09:38.811Z,9.50
2022-11-10T01:12:24.275Z,9.50
2022-11-10T01:15:10.096Z,9.50
2022-11-10T01:17:56.454Z,9.50
2022-11-10T01:20:41.981Z,9.50
2022-11-10T01:23:27.784Z,9.60
2022-11-10T01:26:13.384Z,9.50
2022-11-10T01:28:58.866Z,9.50
2022-11-10T01:31:44.439Z,9.50
2022-11-10T01:34:30.165Z,9.60
2022-11-10T01:37:15.788Z,9.60
2022-11-10T01:40:01.649Z,9.60
2022-11-10T01:42:57.010Z,9.70
2022-11-10T01:45:42.549Z,9.60
2022-11-10T01:48:54.479Z,9.70
2022-11-10T01:51:56.042Z,9.60
2022-11-10T01:54:44.902Z,9.70
2022-11-10T01:57:30.338Z,9.70
2022-11-10T02:00:16.216Z,9.70
2022-11-10T02:03:05.742Z,9.70
2022-11-10T02:05:51.594Z,9.70
2022-11-10T02:08:37.451Z,9.70
2022-11-10T02:11:23.243Z,9.80
2022-11-10T02:14:09.283Z,9.80
2022-11-10T02:16:54.900Z,9.80
2022-11-10T02:19:41.875Z,9.90
2022-11-10T02:22:27.678Z,9.90
2022-11-10T02:25:19.601Z,9.90
2022-11-10T02:28:05.174Z,9.90
2022-11-10T02:30:51.008Z,9.90
2022-11-10T02:33:37.141Z,9.90
2022-11-10T02:36:22.968Z,10.00
2022-11-10T02:39:08.902Z,10.00
2022-11-10T02:41:54.410Z,10.00
2022-11-10T02:44:40.410Z,10.00
2022-11-10T02:47:26.125Z,10.00
2022-11-10T02:50:11.993Z,10.00
2022-11-10T02:52:57.402Z,10.10
2022-11-10T02:55:43.125Z,10.00
2022-11-10T02:58:28.898Z,10.10
2022-11-10T03:01:14.751Z,10.10
2022-11-10T03:04:00.144Z,10.10
2022-11-10T03:06:46.357Z,10.10
2022-11-10T03:09:32.200Z,10.10
2022-11-10T03:12:17.902Z,10.10
2022-11-10T03:15:04.050Z,10.10
2022-11-10T03:17:49.742Z,10.00
2022-11-10T03:20:35.131Z,10.00
2022-11-10T03:23:20.845Z,10.00
2022-11-10T03:26:07.121Z,9.90
2022-11-10T03:28:52.500Z,9.90
2022-11-10T03:31:38.436Z,9.90
2022-11-10T03:34:26.974Z,9.90
2022-11-10T03:37:15.181Z,9.90
2022-11-10T03:40:00.791Z,9.90
2022-11-10T03:42:46.544Z,9.90
2022-11-10T03:45:32.318Z,9.90
2022-11-10T03:48:18.201Z,9.90
2022-11-10T03:51:03.814Z,10.00
2022-11-10T03:53:49.526Z,10.00
2022-11-10T03:56:35.166Z,10.00
2022-11-10T03:59:21.162Z,10.10
2022-11-10T04:02:06.865Z,10.10
2022-11-10T04:05:22.379Z,10.00
2022-11-10T04:08:32.082Z,10.00
2022-11-10T04:11:37.201Z,10.10
2022-11-10T04:14:41.464Z,10.10
2022-11-10T04:17:27.163Z,10.10
2022-11-10T04:20:12.740Z,10.10
2022-11-10T04:23:16.774Z,10.20
2022-11-10T04:26:23.470Z,10.20
2022-11-10T04:29:11.054Z,10.20
2022-11-10T04:31:56.538Z,10.10
2022-11-10T04:34:42.089Z,10.20
2022-11-10T04:37:27.570Z,10.10
2022-11-10T04:40:13.106Z,10.20
2022-11-10T04:42:58.689Z,10.10
2022-11-10T04:45:44.428Z,10.10
2022-11-10T04:48:30.407Z,10.10
2022-11-10T04:51:16.742Z,10.00
2022-11-10T04:54:02.692Z,10.00
2022-11-10T04:56:48.397Z,10.00
2022-11-10T04:59:34.122Z,10.00
2022-11-10T05:02:19.544Z,10.00
2022-11-10T05:05:05.699Z,10.00
2022-11-10T05:07:51.368Z,10.10
2022-11-10T05:10:37.908Z,10.10
2022-11-10T05:13:23.965Z,10.00
2022-11-10T05:16:10.448Z,10.00
2022-11-10T05:18:58.368Z,10.00
2022-11-10T05:21:43.628Z,10.00
2022-11-10T05:24:29.453Z,10.10
2022-11-10T05:27:14.967Z,10.10
2022-11-10T05:30:00.639Z,10.10
2022-11-10T05:32:48.186Z,10.10
2022-11-10T05:35:33.988Z,10.10
2022-11-10T05:38:22.285Z,10.10
2022-11-10T05:41:08.157Z,10.10
2022-11-10T05:43:53.715Z,10.20
2022-11-10T05:46:39.192Z,10.20
2022-11-10T05:49:24.593Z,10.10
2022-11-10T05:52:10.068Z,10.20
2022-11-10T05:54:56.035Z,10.20
2022-11-10T05:57:45.423Z,10.20
2022-11-10T06:00:31.609Z,10.20
2022-11-10T06:03:18.231Z,10.20
2022-11-10T06:06:04.087Z,10.20
2022-11-10T06:08:49.939Z,10.20
2022-11-10T06:11:35.536Z,10.10
2022-11-10T06:14:20.828Z,10.10
2022-11-10T06:17:06.672Z,10.10
2022-11-10T06:19:52.431Z,10.10
2022-11-10T06:22:37.810Z,10.10
2022-11-10T06:25:23.633Z,10.20
2022-11-10T06:28:09.713Z,10.20
2022-11-10T06:30:57.168Z,10.20
2022-11-10T06:33:42.980Z,10.20
2022-11-10T06:36:28.603Z,10.20
2022-11-10T06:39:14.054Z,10.20
2022-11-10T06:41:59.837Z,10.20
2022-11-10T06:44:45.299Z,10.30
2022-11-10T06:47:31.329Z,10.30
2022-11-10T06:50:17.300Z,10.30
2022-11-10T06:53:02.913Z,10.30
2022-11-10T06:55:48.613Z,10.40
2022-11-10T06:58:34.113Z,10.40
2022-11-10T07:01:22.660Z,10.40
2022-11-10T07:04:24.067Z,10.40
2022-11-10T07:07:10.007Z,10.40
2022-11-10T07:09:55.769Z,10.50
2022-11-10T07:12:41.233Z,10.50
2022-11-10T07:15:27.034Z,10.50
2022-11-10T07:18:12.562Z,10.50
2022-11-10T07:20:58.186Z,10.60
2022-11-10T07:23:43.990Z,10.60
2022-11-10T07:26:29.652Z,10.60
2022-11-10T07:29:15.179Z,10.60
2022-11-10T07:32:00.573Z,10.60
2022-11-10T07:34:46.379Z,10.60
2022-11-10T07:37:31.934Z,10.60
2022-11-10T07:40:17.998Z,10.70
2022-11-10T07:43:03.634Z,10.70
2022-11-10T07:45:49.823Z,10.70
2022-11-10T07:48:35.298Z,10.80
2022-11-10T07:51:20.952Z,10.80
2022-11-10T07:54:06.465Z,10.90
2022-11-10T07:56:52.706Z,10.90
2022-11-10T07:59:38.581Z,10.80
2022-11-10T08:02:24.174Z,10.90
2022-11-10T08:05:09.692Z,10.90
2022-11-10T08:07:55.255Z,10.90
2022-11-10T08:10:41.124Z,10.90
2022-11-10T08:13:26.936Z,11.00
2022-11-10T08:16:12.492Z,11.00
2022-11-10T08:18:58.343Z,11.00
2022-11-10T08:21:43.727Z,11.10
2022-11-10T08:24:29.176Z,11.20
2022-11-10T08:27:14.931Z,11.20
2022-11-10T08:30:00.485Z,11.20
2022-11-10T08:32:45.986Z,11.20
2022-11-10T08:35:32.617Z,11.20
2022-11-10T08:38:20.109Z,11.20
2022-11-10T08:41:05.717Z,11.20
2022-11-10T08:43:51.661Z,11.20
2022-11-10T08:46:36.992Z,11.20
2022-11-10T08:49:22.424Z,11.30
2022-11-10T08:52:07.887Z,11.30
2022-11-10T08:54:53.558Z,11.20
2022-11-10T08:57:38.926Z,11.20
2022-11-10T09:00:24.512Z,11.20
2022-11-10T09:03:18.952Z,11.20
2022-11-10T09:06:05.039Z,11.30
2022-11-10T09:08:50.750Z,11.30
2022-11-10T09:11:36.020Z,11.20
2022-11-10T09:14:22.067Z,11.20
2022-11-10T09:17:07.405Z,11.20
2022-11-10T09:19:53.132Z,11.20
2022-11-10T09:22:38.921Z,11.20
2022-11-10T09:25:24.238Z,11.30
2022-11-10T09:28:13.676Z,11.30
2022-11-10T09:30:59.138Z,11.40
2022-11-10T09:33:44.759Z,11.50
2022-11-10T09:36:30.386Z,11.50
2022-11-10T09:39:15.800Z,11.50
2022-11-10T09:42:01.679Z,11.60
2022-11-10T09:44:52.199Z,11.60
2022-11-10T09:47:58.074Z,11.60
2022-11-10T09:51:04.292Z,11.70
2022-11-10T09:53:51.721Z,11.70
2022-11-10T09:56:37.976Z,11.70
2022-11-10T09:59:27.659Z,11.70
2022-11-10T10:02:21.179Z,11.80
2022-11-10T10:05:42.547Z,11.70
2022-11-10T10:08:37.082Z,11.70
2022-11-10T10:11:40.766Z,11.70
2022-11-10T10:14:41.672Z,11.80
2022-11-10T10:17:47.392Z,11.80
2022-11-10T10:20:52.275Z,11.80
2022-11-10T10:24:07.603Z,11.80
2022-11-10T10:26:54.870Z,11.80
2022-11-10T10:29:43.026Z,11.80
2022-11-10T10:32:28.829Z,11.80
2022-11-10T10:35:18.130Z,11.80
2022-11-10T10:38:04.762Z,11.80
2022-11-10T10:40:51.413Z,11.80
2022-11-10T10:43:37.280Z,11.70
2022-11-10T10:46:35.692Z,11.70
2022-11-10T10:49:31.000Z,11.70
2022-11-10T10:52:17.838Z,11.70
2022-11-10T10:55:07.380Z,11.70
2022-11-10T10:57:58.446Z,11.70
2022-11-10T11:00:48.346Z,11.60
2022-11-10T11:03:40.681Z,11.60
2022-11-10T11:06:28.066Z,11.60
2022-11-10T11:09:36.891Z,11.70
2022-11-10T11:12:22.609Z,11.70
2022-11-10T11:15:12.864Z,11.70
2022-11-10T11:18:02.772Z,11.80
2022-11-10T11:20:51.126Z,11.80
2022-11-10T11:23:54.327Z,11.90
2022-11-10T11:26:49.236Z,11.90
2022-11-10T11:29:34.896Z,11.90
2022-11-10T11:32:23.587Z,11.90
2022-11-10T11:35:18.633Z,11.90
2022-11-10T11:38:10.344Z,12.00
2022-11-10T11:40:56.289Z,12.00
2022-11-10T11:43:53.879Z,12.00
2022-11-10T11:46:48.920Z,12.00
2022-11-10T11:49:58.135Z,12.10
2022-11-10T11:53:00.770Z,12.10
2022-11-10T11:56:05.985Z,12.10
2022-11-10T11:59:10.480Z,12.10
2022-11-10T12:01:55.709Z,12.20
2022-11-10T12:04:47.620Z,12.10
2022-11-10T12:07:36.238Z,12.20
2022-11-10T12:10:44.044Z,12.20
2022-11-10T12:13:48.112Z,12.20
2022-11-10T12:16:34.997Z,12.20
2022-11-10T12:19:26.607Z,12.20
2022-11-10T12:22:31.236Z,12.10
2022-11-10T12:25:22.365Z,12.10
2022-11-10T12:28:18.707Z,12.10
2022-11-10T12:31:06.442Z,12.20
2022-11-10T12:33:56.774Z,12.10
2022-11-10T12:36:43.022Z,12.20
2022-11-10T12:39:38.468Z,12.20
2022-11-10T12:42:25.814Z,12.10
2022-11-10T12:45:14.446Z,12.10
2022-11-10T12:48:00.510Z,12.10
2022-11-10T12:50:50.938Z,12.00
2022-11-10T12:53:38.158Z,12.00
2022-11-10T12:56:28.810Z,12.10
2022-11-10T12:59:19.840Z,12.10
2022-11-10T13:02:25.594Z,12.10
2022-11-10T13:05:14.246Z,12.10
2022-11-10T13:08:18.409Z,12.10
2022-11-10T13:11:03.911Z,12.10
2022-11-10T13:14:00.052Z,12.00
2022-11-10T13:16:49.522Z,12.10
2022-11-10T13:19:39.051Z,12.10
2022-11-10T13:22:43.111Z,12.10
2022-11-10T13:25:38.169Z,12.10
2022-11-10T13:28:42.496Z,12.10
2022-11-10T13:31:28.254Z,12.10
2022-11-10T13:34:20.126Z,12.00
2022-11-10T13:37:24.820Z,12.00
2022-11-10T13:40:25.780Z,12.00
2022-11-10T13:43:13.112Z,12.00
2022-11-10T13:46:00.519Z,12.00
2022-11-10T13:49:06.339Z,11.90
2022-11-10T13:52:06.568Z,11.90
2022-11-10T13:55:00.342Z,11.90
2022-11-10T13:57:54.966Z,11.90
2022-11-10T14:00:40.665Z,11.90
2022-11-10T14:03:55.886Z,11.90
2022-11-10T14:06:53.118Z,11.80
2022-11-10T14:09:42.116Z,11.80
2022-11-10T14:12:29.621Z,11.80
2022-11-10T14:15:18.019Z,11.80
2022-11-10T14:18:11.500Z,11.80
2022-11-10T14:20:57.981Z,11.80
2022-11-10T14:23:49.086Z,11.80
2022-11-10T14:26:36.753Z,11.80
2022-11-10T14:29:30.467Z,11.80
2022-11-10T14:32:19.072Z,11.70
2022-11-10T14:35:05.313Z,11.70
2022-11-10T14:37:51.277Z,11.70
2022-11-10T14:40:41.334Z,11.70
2022-11-10T14:43:35.130Z,11.70
2022-11-10T14:46:23.602Z,11.60
2022-11-10T14:49:10.446Z,11.60
2022-11-10T14:51:59.712Z,11.60
2022-11-10T14:54:46.210Z,11.60
2022-11-10T14:57:32.011Z,11.60
2022-11-10T15:00:20.465Z,11.60
2022-11-10T15:03:06.971Z,11.50
2022-11-10T15:05:52.835Z,11.50
2022-11-10T15:08:39.593Z,11.50
2022-11-10T15:11:51.780Z,11.60
2022-11-10T15:14:47.214Z,11.60
2022-11-10T15:17:46.706Z,11.60
2022-11-10T15:20:36.696Z,11.50
2022-11-10T15:23:27.006Z,11.50
2022-11-10T15:26:26.403Z,11.50
2022-11-10T15:29:22.712Z,11.50
2022-11-10T15:32:16.177Z,11.50
2022-11-10T15:35:25.140Z,11.50
2022-11-10T15:38:19.560Z,11.50
2022-11-10T15:41:26.769Z,11.50
2022-11-10T15:44:19.242Z,11.50
2022-11-10T15:47:05.159Z,11.40
2022-11-10T15:49:50.601Z,11.40
2022-11-10T15:52:37.758Z,11.40
2022-11-10T15:55:24.082Z,11.30
2022-11-10T15:58:13.973Z,11.30
2022-11-10T16:01:00.211Z,11.30
2022-11-10T16:03:45.806Z,11.30
2022-11-10T16:06:31.628Z,11.20
2022-11-10T16:09:16.941Z,11.20
2022-11-10T16:12:02.490Z,11.20
2022-11-10T16:14:49.885Z,11.20
2022-11-10T16:17:35.557Z,11.20
2022-11-10T16:20:21.289Z,11.20
2022-11-10T16:23:07.026Z,11.20
2022-11-10T16:25:54.414Z,11.20
2022-11-10T16:28:42.134Z,11.20
2022-11-10T16:31:27.852Z,11.20
2022-11-10T16:34:14.371Z,11.10
2022-11-10T16:37:00.167Z,11.10
2022-11-10T16:39:47.105Z,11.10
2022-11-10T16:42:32.796Z,11.20
2022-11-10T16:45:22.748Z,11.20
2022-11-10T16:48:08.591Z,11.20
2022-11-10T16:50:55.810Z,11.20
2022-11-10T16:53:41.775Z,11.10
2022-11-10T16:56:28.057Z,11.10
2022-11-10T16:59:13.855Z,11.10
2022-11-10T17:01:59.298Z,11.10
2022-11-10T17:04:44.766Z,11.20
2022-11-10T17:07:30.747Z,11.20
2022-11-10T17:10:17.704Z,11.20
2022-11-10T17:13:03.556Z,11.20
2022-11-10T17:15:49.960Z,11.20
2022-11-10T17:18:35.849Z,11.20
2022-11-10T17:21:21.799Z,11.20
2022-11-10T17:24:07.548Z,11.20
2022-11-10T17:26:53.379Z,11.20
2022-11-10T17:29:38.852Z,11.10
2022-11-10T17:32:43.200Z,11.10
2022-11-10T17:35:31.741Z,11.00
2022-11-10T17:38:24.256Z,10.90
2022-11-10T17:41:20.465Z,10.90
2022-11-10T17:44:06.050Z,10.80
2022-11-10T17:46:51.551Z,10.80
2022-11-10T17:49:37.029Z,10.70
2022-11-10T17:52:22.920Z,10.70
2022-11-10T17:55:14.667Z,10.60
2022-11-10T17:58:00.410Z,10.60
2022-11-10T18:00:46.182Z,10.60
2022-11-10T18:03:31.837Z,10.70
2022-11-10T18:06:18.444Z,10.70
2022-11-10T18:09:04.197Z,10.70
2022-11-10T18:11:49.630Z,10.60
2022-11-10T18:14:35.872Z,10.60
2022-11-10T18:17:21.345Z,10.60
2022-11-10T18:20:07.490Z,10.60
2022-11-10T18:22:53.238Z,10.70
2022-11-10T18:25:39.699Z,10.70
2022-11-10T18:28:24.899Z,10.70
2022-11-10T18:31:12.649Z,10.80
2022-11-10T18:33:58.014Z,10.80
2022-11-10T18:36:43.750Z,10.90
2022-11-10T18:39:29.314Z,10.90
2022-11-10T18:42:14.448Z,10.90
2022-11-10T18:44:59.848Z,10.90
2022-11-10T18:47:45.078Z,11.00
2022-11-10T18:50:30.785Z,10.90
2022-11-10T18:53:16.226Z,11.00
2022-11-10T18:56:01.961Z,11.10
2022-11-10T18:58:52.319Z,11.00
2022-11-10T19:01:42.172Z,11.00
2022-11-10T19:04:27.476Z,11.00
2022-11-10T19:07:12.892Z,11.00
2022-11-10T19:09:59.949Z,11.00
2022-11-10T19:12:45.476Z,11.00
2022-11-10T19:15:38.323Z,11.10
2022-11-10T19:18:23.686Z,11.10
2022-11-10T19:21:13.584Z,11.10
2022-11-10T19:23:59.341Z,11.10
2022-11-10T19:26:44.912Z,11.10
2022-11-10T19:29:31.481Z,11.10
2022-11-10T19:32:22.105Z,11.20
2022-11-10T19:35:11.360Z,11.10
2022-11-10T19:37:57.070Z,11.10
2022-11-10T19:40:44.707Z,11.10
2022-11-10T19:43:31.127Z,11.10
2022-11-10T19:46:17.812Z,11.10
2022-11-10T19:49:06.229Z,11.10
2022-11-10T19:51:52.016Z,11.10
2022-11-10T19:54:37.586Z,11.10
2022-11-10T19:57:23.298Z,11.10
2022-11-10T20:00:10.380Z,11.10
2022-11-10T20:02:55.742Z,11.10
2022-11-10T20:05:42.158Z,11.10
2022-11-10T20:08:28.481Z,11.20
2022-11-10T20:11:15.378Z,11.10
2022-11-10T20:14:01.164Z,11.10
2022-11-10T20:16:46.776Z,11.10
2022-11-10T20:19:40.769Z,11.20
2022-11-10T20:22:27.143Z,11.20
2022-11-10T20:25:12.691Z,11.20
2022-11-10T20:27:58.938Z,11.20
2022-11-10T20:30:44.638Z,11.20
2022-11-10T20:33:30.703Z,11.10
2022-11-10T20:36:20.697Z,11.20
2022-11-10T20:39:06.770Z,11.20
2022-11-10T20:41:52.792Z,11.20
2022-11-10T20:44:38.167Z,11.20
2022-11-10T20:47:23.733Z,11.20
2022-11-10T20:50:14.789Z,11.20
2022-11-10T20:53:01.410Z,11.20
2022-11-10T20:55:54.347Z,11.10
2022-11-10T20:58:40.372Z,11.10
2022-11-10T21:01:26.211Z,11.10
2022-11-10T21:04:11.897Z,11.10
2022-11-10T21:06:57.846Z,11.10
2022-11-10T21:09:43.712Z,11.00
2022-11-10T21:12:50.489Z,10.90
2022-11-10T21:15:39.834Z,10.80
2022-11-10T21:18:26.584Z,10.70
2022-11-10T21:21:19.712Z,10.70
2022-11-10T21:24:06.347Z,10.70
2022-11-10T21:26:51.788Z,10.70
2022-11-10T21:29:37.984Z,10.60
2022-11-10T21:32:23.388Z,10.70
2022-11-10T21:35:08.962Z,10.80
2022-11-10T21:37:54.460Z,10.80
2022-11-10T21:40:40.551Z,10.70
2022-11-10T21:43:26.015Z,10.80
2022-11-10T21:46:11.803Z,10.70
2022-11-10T21:48:57.433Z,10.70
2022-11-10T21:51:42.968Z,10.60
2022-11-10T21:54:28.549Z,10.60
2022-11-10T21:57:14.265Z,10.50
2022-11-10T22:00:00.180Z,10.40
2022-11-10T22:02:45.729Z,10.40
2022-11-10T22:05:33.419Z,10.30
2022-11-10T22:08:21.850Z,10.30
2022-11-10T22:11:33.908Z,10.20
2022-11-10T22:14:19.858Z,10.20
2022-11-10T22:17:32.072Z,10.10
2022-11-10T22:20:17.869Z,10.10
2022-11-10T22:23:03.263Z,10.00
2022-11-10T22:25:48.851Z,10.00
2022-11-10T22:28:34.437Z,9.90
2022-11-10T22:31:19.952Z,9.90
2022-11-10T22:34:05.564Z,9.90
2022-11-10T22:36:51.806Z,9.80
2022-11-10T22:40:12.704Z,9.80
2022-11-10T22:43:17.179Z,9.70
2022-11-10T22:46:03.035Z,9.70
2022-11-10T22:48:48.498Z,9.60
2022-11-10T22:51:34.614Z,9.60
2022-11-10T22:54:21.377Z,9.60
2022-11-10T22:57:07.151Z,9.60
2022-11-10T22:59:52.872Z,9.60
2022-11-10T23:02:38.589Z,9.50
2022-11-10T23:05:24.694Z,9.50
2022-11-10T23:08:10.555Z,9.40
2022-11-10T23:10:59.903Z,9.40
2022-11-10T23:13:45.578Z,9.30
2022-11-10T23:16:33.128Z,9.30
2022-11-10T23:19:18.632Z,9.20
2022-11-10T23:22:04.072Z,9.20
2022-11-10T23:24:54.289Z,9.20
2022-11-10T23:27:42.258Z,9.20
2022-11-10T23:30:27.536Z,9.20
2022-11-10T23:33:13.061Z,9.10
2022-11-10T23:35:58.699Z,9.10
2022-11-10T23:38:44.483Z,9.10
2022-11-10T23:41:30.627Z,9.10
2022-11-10T23:44:16.017Z,9.10
2022-11-10T23:47:01.667Z,9.10
2022-11-10T23:49:47.254Z,9.00
2022-11-10T23:52:33.040Z,9.00
2022-11-10T23:55:18.751Z,9.00
2022-11-10T23:58:04.522Z,9.00
